Time;durP1;ratioP1;P1;durP2;ratioP2;P2;SDS_P1;SDS_P2;PMS_P1;PMS_P2;Temp;Humidity;BMP_temperature;BMP_pressure;BME280_temperature;BME280_humidity;BME280_pressure;Samples;Min_cycle;Max_cycle;Signal;HPM_P1;HPM_P2
2021/03/06 00:02:41;;;;;;;0.20;0.20;;;10.30;99.90;;;;;;5078875;28;20237;-86
2021/03/06 00:05:23;;;;;;;0.80;0.30;;;10.10;99.90;;;;;;5094700;28;20210;-87
2021/03/06 00:07:53;;;;;;;1.27;0.40;;;9.80;99.90;;;;;;5107057;28;20250;-85
2021/03/06 00:10:25;;;;;;;0.90;0.40;;;9.50;99.90;;;;;;5080735;28;20207;-88
2021/03/06 00:12:55;;;;;;;1.23;0.30;;;9.30;99.90;;;;;;5103779;28;20260;-87
2021/03/06 00:15:29;;;;;;;4.13;0.47;;;9.10;99.90;;;;;;5112342;28;20284;-87
2021/03/06 00:18:00;;;;;;;1.93;0.47;;;8.80;99.90;;;;;;5104934;28;20293;-88
2021/03/06 00:20:31;;;;;;;1.70;0.50;;;8.50;99.90;;;;;;5113328;28;20249;-89
2021/03/06 00:23:01;;;;;;;2.00;0.40;;;8.20;99.90;;;;;;5113500;28;20214;-86
2021/03/06 00:25:35;;;;;;;2.00;0.40;;;8.00;99.90;;;;;;5110947;28;20205;-88
2021/03/06 00:28:34;;;;;;;0.67;0.37;;;7.90;99.90;;;;;;5113688;28;20251;-88
2021/03/06 00:31:16;;;;;;;0.63;0.50;;;7.80;99.90;;;;;;5114787;28;20213;-87
2021/03/06 00:33:47;;;;;;;2.40;0.43;;;7.80;99.90;;;;;;5110057;28;20876;-86
2021/03/06 00:36:18;;;;;;;1.90;0.47;;;7.80;99.90;;;;;;5113616;28;20210;-86
2021/03/06 00:38:51;;;;;;;0.37;0.30;;;7.80;99.90;;;;;;5095773;28;20581;-86
2021/03/06 00:41:22;;;;;;;2.10;0.43;;;7.80;99.90;;;;;;5113714;28;20274;-87
2021/03/06 00:43:52;;;;;;;0.47;0.40;;;7.80;99.90;;;;;;5093697;28;20203;-86
2021/03/06 00:46:24;;;;;;;1.70;0.50;;;7.90;99.90;;;;;;5107164;28;20200;-86
2021/03/06 00:48:54;;;;;;;1.13;0.73;;;7.80;99.90;;;;;;5094401;28;20577;-87
2021/03/06 00:51:26;;;;;;;1.33;0.47;;;7.70;99.90;;;;;;5100834;28;20202;-87
2021/03/06 00:54:08;;;;;;;0.70;0.37;;;7.60;99.90;;;;;;5107593;28;20221;-87
2021/03/06 00:56:43;;;;;;;1.20;0.57;;;7.50;99.90;;;;;;5113733;28;20270;-86
2021/03/06 00:59:17;;;;;;;1.70;0.40;;;7.60;99.90;;;;;;5106432;28;20226;-86
2021/03/06 01:01:53;;;;;;;1.03;0.47;;;7.50;99.90;;;;;;5098764;28;20739;-86
2021/03/06 01:04:24;;;;;;;1.03;0.43;;;7.50;99.90;;;;;;5106289;28;20202;-87
2021/03/06 01:06:55;;;;;;;0.90;0.40;;;7.60;99.90;;;;;;5075111;28;20284;-86
2021/03/06 01:09:25;;;;;;;1.47;0.60;;;7.60;99.90;;;;;;5092993;28;20199;-87
2021/03/06 01:11:57;;;;;;;0.53;0.40;;;7.50;99.90;;;;;;5110993;28;20633;-86
2021/03/06 01:14:27;;;;;;;2.07;0.53;;;7.50;99.90;;;;;;5116693;28;20204;-86
2021/03/06 01:17:00;;;;;;;2.30;0.50;;;7.50;99.90;;;;;;5118277;28;20206;-86
2021/03/06 01:19:31;;;;;;;1.30;0.57;;;7.40;99.90;;;;;;5117625;28;20277;-87
2021/03/06 01:22:02;;;;;;;2.27;0.90;;;7.40;99.90;;;;;;5116873;28;20228;-85
2021/03/06 01:24:38;;;;;;;3.13;0.50;;;7.40;99.90;;;;;;5117070;28;20198;-87
2021/03/06 01:27:08;;;;;;;1.37;0.60;;;7.40;99.90;;;;;;5117637;28;20296;-87
2021/03/06 01:29:39;;;;;;;3.37;0.70;;;7.40;99.90;;;;;;5117289;28;20220;-87
2021/03/06 01:32:12;;;;;;;4.00;1.17;;;7.40;99.90;;;;;;5117997;28;21024;-87
2021/03/06 01:34:46;;;;;;;3.63;0.90;;;7.40;99.90;;;;;;5116088;28;20192;-87
2021/03/06 01:37:17;;;;;;;3.70;1.47;;;7.40;99.90;;;;;;5115906;28;20206;-86
2021/03/06 01:39:48;;;;;;;0.77;0.63;;;7.30;99.90;;;;;;5116736;28;20264;-85
2021/03/06 01:42:19;;;;;;;3.80;0.97;;;7.30;99.90;;;;;;5117702;28;20293;-86
2021/03/06 01:44:49;;;;;;;2.17;0.93;;;7.30;99.90;;;;;;5115474;28;20206;-86
2021/03/06 01:47:20;;;;;;;1.47;0.70;;;7.30;99.90;;;;;;5116571;28;20249;-88
2021/03/06 01:49:51;;;;;;;1.50;0.90;;;7.40;99.90;;;;;;4756144;28;9999991;-89
2021/03/06 01:52:21;;;;;;;0.60;0.50;;;7.40;99.90;;;;;;5100508;28;20205;-88
2021/03/06 01:54:58;;;;;;;3.83;0.60;;;7.40;99.90;;;;;;5124582;28;20198;-89
2021/03/06 01:57:29;;;;;;;2.50;0.83;;;7.40;99.90;;;;;;5100756;28;20294;-85
2021/03/06 02:00:02;;;;;;;1.37;0.90;;;7.40;99.90;;;;;;5121598;28;20222;-85
2021/03/06 02:02:35;;;;;;;5.13;1.30;;;7.40;99.90;;;;;;5121597;28;20218;-85
2021/03/06 02:05:07;;;;;;;1.27;1.10;;;7.40;99.90;;;;;;5114240;28;20200;-87
2021/03/06 02:07:40;;;;;;;3.57;1.37;;;7.40;99.90;;;;;;5108368;28;20225;-87
2021/03/06 02:10:12;;;;;;;4.27;1.43;;;7.40;99.90;;;;;;5117867;28;20210;-87
2021/03/06 02:12:54;;;;;;;4.13;1.53;;;7.40;99.90;;;;;;5116549;28;20217;-84
2021/03/06 02:15:34;;;;;;;2.93;1.50;;;7.30;99.90;;;;;;5119036;28;20214;-87
2021/03/06 02:18:11;;;;;;;1.60;1.40;;;7.30;99.90;;;;;;5133562;28;20223;-88
2021/03/06 02:20:51;;;;;;;1.40;1.27;;;7.30;99.90;;;;;;5105664;28;20188;-87
2021/03/06 02:24:02;;;;;;;2.83;1.27;;;7.30;99.90;;;;;;5114554;28;20209;-87
2021/03/06 02:26:50;;;;;;;2.23;1.50;;;7.30;99.90;;;;;;5108653;28;20599;-86
2021/03/06 02:29:56;;;;;;;2.57;1.43;;;7.30;99.90;;;;;;5103311;28;20217;-86
2021/03/06 02:32:32;;;;;;;2.60;1.30;;;7.30;99.90;;;;;;5100592;28;20246;-86
2021/03/06 02:35:11;;;;;;;4.80;1.40;;;7.30;99.90;;;;;;5113100;28;20630;-86
2021/03/06 02:37:47;;;;;;;3.20;1.20;;;7.20;99.90;;;;;;5101453;28;20669;-85
2021/03/06 02:40:18;;;;;;;4.20;1.53;;;7.10;99.90;;;;;;5101264;28;20286;-85
2021/03/06 02:42:49;;;;;;;2.07;0.97;;;7.10;99.90;;;;;;5101961;28;20572;-85
2021/03/06 02:45:21;;;;;;;3.03;1.07;;;7.20;99.90;;;;;;5113499;28;20529;-87
2021/03/06 02:47:54;;;;;;;2.23;1.17;;;7.40;99.90;;;;;;5100431;28;20202;-88
2021/03/06 02:50:25;;;;;;;1.63;1.10;;;7.30;99.90;;;;;;5107118;28;20214;-87
2021/03/06 02:52:55;;;;;;;3.33;1.70;;;7.40;99.90;;;;;;5100914;28;20245;-87
2021/03/06 02:55:42;;;;;;;3.40;1.30;;;7.40;99.90;;;;;;5116368;28;20656;-88
2021/03/06 02:58:43;;;;;;;1.80;1.30;;;7.40;99.90;;;;;;5100587;28;20243;-85
2021/03/06 03:01:21;;;;;;;1.53;1.40;;;7.40;99.90;;;;;;5112323;28;20204;-84
2021/03/06 03:03:59;;;;;;;1.10;0.87;;;7.40;99.90;;;;;;5102860;28;20264;-84
2021/03/06 03:06:35;;;;;;;1.40;1.00;;;7.40;99.90;;;;;;5112031;28;20602;-83
2021/03/06 03:09:12;;;;;;;4.67;1.20;;;7.40;99.90;;;;;;5104189;28;20206;-84
2021/03/06 03:11:51;;;;;;;0.90;0.67;;;7.40;99.90;;;;;;5111290;28;20210;-82
2021/03/06 03:14:29;;;;;;;1.67;0.77;;;7.40;99.90;;;;;;5110042;28;20202;-84
2021/03/06 03:17:04;;;;;;;1.27;1.10;;;7.40;99.90;;;;;;5098042;28;20244;-83
2021/03/06 03:19:45;;;;;;;2.00;1.00;;;7.40;99.90;;;;;;5111665;28;20226;-85
2021/03/06 03:22:19;;;;;;;1.90;0.73;;;7.40;99.90;;;;;;5113519;28;20246;-84
2021/03/06 03:24:53;;;;;;;2.90;1.00;;;7.40;99.90;;;;;;5112594;28;20221;-84
2021/03/06 03:27:26;;;;;;;1.40;1.30;;;7.40;99.90;;;;;;5112513;27;20485;-84
2021/03/06 03:29:58;;;;;;;1.67;1.00;;;7.40;99.90;;;;;;5118415;27;20206;-85
2021/03/06 03:32:33;;;;;;;1.20;0.80;;;7.40;99.90;;;;;;5094258;28;20696;-85
2021/03/06 03:35:09;;;;;;;1.43;0.90;;;7.40;99.90;;;;;;5109840;28;20834;-84
2021/03/06 03:37:41;;;;;;;2.30;1.03;;;7.40;99.90;;;;;;5083120;28;20260;-84
2021/03/06 03:40:15;;;;;;;1.60;0.87;;;7.40;99.90;;;;;;5116846;28;20279;-83
2021/03/06 03:42:45;;;;;;;1.47;0.90;;;7.40;99.90;;;;;;5111413;28;20190;-81
2021/03/06 03:45:19;;;;;;;2.20;0.70;;;7.40;99.90;;;;;;5127831;28;20199;-86
2021/03/06 03:47:50;;;;;;;2.30;1.10;;;7.30;99.90;;;;;;5120897;28;20531;-86
2021/03/06 03:50:23;;;;;;;1.30;1.00;;;7.30;99.90;;;;;;5114695;28;20552;-86
2021/03/06 03:52:54;;;;;;;1.33;1.17;;;7.20;99.90;;;;;;5114060;28;20206;-85
2021/03/06 03:55:26;;;;;;;2.40;1.30;;;7.30;99.90;;;;;;5079670;28;20754;-84
2021/03/06 03:57:56;;;;;;;2.10;1.33;;;7.30;99.90;;;;;;5091923;28;20294;-85
2021/03/06 04:00:26;;;;;;;2.37;1.80;;;7.30;99.90;;;;;;5110470;28;20322;-83
2021/03/06 04:03:00;;;;;;;2.33;1.57;;;7.20;99.90;;;;;;5110133;28;20210;-83
2021/03/06 04:05:33;;;;;;;2.53;1.50;;;7.20;99.90;;;;;;5109454;28;20736;-84
2021/03/06 04:08:21;;;;;;;2.93;1.50;;;7.20;99.90;;;;;;5111872;28;20212;-84
2021/03/06 04:10:51;;;;;;;2.37;1.67;;;7.20;99.90;;;;;;5112448;28;20727;-83
2021/03/06 04:13:21;;;;;;;2.70;1.70;;;7.20;99.90;;;;;;5110070;28;20262;-82
2021/03/06 04:15:51;;;;;;;3.17;1.80;;;7.20;99.90;;;;;;5111176;28;20202;-82
2021/03/06 04:18:21;;;;;;;4.47;2.63;;;7.20;99.90;;;;;;5096151;28;20610;-83
2021/03/06 04:20:52;;;;;;;1.97;1.67;;;7.20;99.90;;;;;;5111991;28;20206;-83
2021/03/06 04:23:23;;;;;;;2.63;1.50;;;7.10;99.90;;;;;;5112795;28;20214;-84
2021/03/06 04:25:53;;;;;;;2.03;1.17;;;7.20;99.90;;;;;;5096764;28;20203;-85
2021/03/06 04:28:22;;;;;;;2.23;1.00;;;7.30;99.90;;;;;;5110926;28;20232;-83
2021/03/06 04:30:52;;;;;;;1.60;1.03;;;7.30;99.90;;;;;;5117217;28;20274;-84
2021/03/06 04:33:22;;;;;;;3.07;1.57;;;7.20;99.90;;;;;;5098833;28;20610;-83
2021/03/06 04:35:54;;;;;;;3.70;1.47;;;7.20;99.90;;;;;;5115422;28;20335;-83
2021/03/06 04:38:25;;;;;;;4.37;1.60;;;7.20;99.90;;;;;;5113528;28;20217;-83
2021/03/06 04:40:55;;;;;;;2.63;1.70;;;7.20;99.90;;;;;;5113075;28;20209;-82
2021/03/06 04:43:25;;;;;;;2.53;1.60;;;7.20;99.90;;;;;;5105039;28;20281;-84
2021/03/06 04:45:55;;;;;;;2.90;1.30;;;7.10;99.90;;;;;;5115715;28;20207;-83
2021/03/06 04:48:24;;;;;;;1.63;0.90;;;7.10;99.90;;;;;;5118610;28;20209;-84
2021/03/06 04:50:56;;;;;;;3.20;1.30;;;7.10;99.90;;;;;;5125592;28;20213;-85
2021/03/06 04:53:26;;;;;;;2.40;1.20;;;7.10;99.90;;;;;;5121794;28;20206;-84
2021/03/06 04:55:56;;;;;;;2.63;0.80;;;7.10;99.90;;;;;;5116497;28;20254;-84
2021/03/06 04:58:26;;;;;;;1.80;0.90;;;7.10;99.90;;;;;;5121619;28;20221;-84
2021/03/06 05:00:57;;;;;;;2.60;1.20;;;7.10;99.90;;;;;;5116681;28;20596;-83
2021/03/06 05:03:27;;;;;;;2.07;0.80;;;7.10;99.90;;;;;;5113567;28;20302;-84
2021/03/06 05:06:00;;;;;;;1.13;0.77;;;7.00;99.90;;;;;;5115498;28;20730;-83
2021/03/06 05:08:31;;;;;;;1.40;0.70;;;7.00;99.90;;;;;;5116117;28;20721;-83
2021/03/06 05:11:02;;;;;;;2.13;0.83;;;7.10;99.90;;;;;;5099590;28;20560;-83
2021/03/06 05:13:37;;;;;;;1.50;0.70;;;7.00;99.90;;;;;;5094542;28;20313;-84
2021/03/06 05:16:11;;;;;;;0.90;0.67;;;7.10;99.90;;;;;;5095570;28;20256;-84
2021/03/06 05:18:42;;;;;;;1.07;0.73;;;7.10;99.90;;;;;;5103249;28;20309;-84
2021/03/06 05:21:15;;;;;;;1.33;0.73;;;7.10;99.90;;;;;;5116648;28;20213;-85
2021/03/06 05:23:45;;;;;;;1.33;0.80;;;7.10;99.90;;;;;;5115614;28;20202;-85
2021/03/06 05:26:18;;;;;;;2.20;1.00;;;7.10;99.90;;;;;;5116761;28;20233;-85
2021/03/06 05:28:54;;;;;;;1.73;0.93;;;7.10;99.90;;;;;;5115626;28;20314;-84
2021/03/06 05:31:24;;;;;;;1.93;0.90;;;7.00;99.90;;;;;;5115873;28;20638;-84
2021/03/06 05:34:06;;;;;;;0.97;0.70;;;7.00;99.90;;;;;;5115033;28;20202;-85
2021/03/06 05:36:39;;;;;;;2.93;0.80;;;7.00;99.90;;;;;;5104679;28;20202;-84
2021/03/06 05:39:09;;;;;;;1.50;0.93;;;7.00;99.90;;;;;;5113497;28;20339;-86
2021/03/06 05:41:39;;;;;;;2.50;0.73;;;7.00;99.90;;;;;;5108918;28;20260;-81
2021/03/06 05:44:12;;;;;;;1.10;0.70;;;7.00;99.90;;;;;;5111181;28;20664;-82
2021/03/06 05:46:42;;;;;;;2.30;1.20;;;7.00;99.90;;;;;;5113825;28;20735;-82
2021/03/06 05:49:14;;;;;;;2.40;1.03;;;7.00;99.90;;;;;;5110816;28;20199;-82
2021/03/06 05:51:46;;;;;;;1.07;0.90;;;7.00;99.90;;;;;;5104729;28;20214;-84
2021/03/06 05:54:17;;;;;;;1.00;0.80;;;7.00;99.90;;;;;;5100062;28;20199;-82
2021/03/06 05:56:49;;;;;;;2.57;0.83;;;7.00;99.90;;;;;;5109370;28;20198;-82
2021/03/06 05:59:22;;;;;;;1.73;0.90;;;7.00;99.90;;;;;;5104208;28;20257;-83
2021/03/06 06:01:52;;;;;;;1.70;1.00;;;7.00;99.90;;;;;;5113522;28;20560;-83
2021/03/06 06:04:25;;;;;;;1.43;1.13;;;7.00;99.90;;;;;;5111470;28;20210;-82
2021/03/06 06:07:44;;;;;;;3.33;1.40;;;6.90;99.90;;;;;;5112724;28;20206;-81
2021/03/06 06:10:15;;;;;;;4.10;1.10;;;6.90;99.90;;;;;;5092867;28;20198;-82
2021/03/06 06:12:46;;;;;;;3.47;1.20;;;6.80;99.90;;;;;;5111922;28;20244;-82
2021/03/06 06:15:19;;;;;;;7.17;2.30;;;6.70;99.90;;;;;;5113841;28;20214;-82
2021/03/06 06:17:49;;;;;;;6.43;2.40;;;6.70;99.90;;;;;;5112688;28;20199;-81
2021/03/06 06:20:21;;;;;;;4.87;1.93;;;6.70;99.90;;;;;;5112784;28;20263;-83
2021/03/06 06:23:09;;;;;;;6.17;2.53;;;6.70;99.90;;;;;;5105583;28;20675;-82
2021/03/06 06:25:44;;;;;;;6.97;2.77;;;6.60;99.90;;;;;;5108879;28;20214;-82
2021/03/06 06:28:20;;;;;;;6.30;2.37;;;6.60;99.90;;;;;;5123239;27;20294;-82
2021/03/06 06:31:08;;;;;;;7.70;3.03;;;6.60;99.90;;;;;;5109705;28;20265;-83
2021/03/06 06:33:40;;;;;;;6.67;3.40;;;6.50;99.90;;;;;;5092472;28;20601;-82
2021/03/06 06:36:36;;;;;;;5.43;2.87;;;6.50;99.90;;;;;;5106259;28;20198;-83
2021/03/06 06:39:06;;;;;;;4.23;2.57;;;6.40;99.90;;;;;;5104937;28;20269;-82
2021/03/06 06:41:56;;;;;;;5.73;3.50;;;6.40;99.90;;;;;;5113291;28;20641;-83
2021/03/06 06:44:55;;;;;;;13.00;4.63;;;6.30;99.90;;;;;;5112318;28;20620;-83
2021/03/06 06:47:41;;;;;;;9.83;4.07;;;6.30;99.90;;;;;;5096334;28;20264;-82
2021/03/06 06:50:13;;;;;;;5.33;2.57;;;6.20;99.90;;;;;;5111475;28;20206;-84
2021/03/06 06:52:44;;;;;;;6.00;3.03;;;6.10;99.90;;;;;;5110485;28;20210;-83
2021/03/06 06:55:15;;;;;;;5.00;2.93;;;6.20;99.90;;;;;;5112066;28;20229;-83
2021/03/06 06:57:54;;;;;;;4.40;2.30;;;6.20;99.90;;;;;;5112721;28;20228;-82
2021/03/06 07:00:25;;;;;;;4.30;2.40;;;6.20;99.90;;;;;;5112117;28;20317;-81
2021/03/06 07:02:57;;;;;;;7.40;3.00;;;6.20;99.90;;;;;;5111429;28;20548;-82
2021/03/06 07:05:31;;;;;;;6.80;3.07;;;6.10;99.90;;;;;;5111293;28;20534;-82
2021/03/06 07:08:02;;;;;;;4.23;2.70;;;6.10;99.90;;;;;;5101638;28;20216;-83
2021/03/06 07:10:37;;;;;;;5.27;2.37;;;6.10;99.90;;;;;;5111001;28;20200;-82
2021/03/06 07:13:10;;;;;;;9.73;3.90;;;6.10;99.90;;;;;;5104402;28;20245;-82
2021/03/06 07:15:43;;;;;;;10.00;3.30;;;6.10;99.90;;;;;;5111779;28;20215;-81
2021/03/06 07:18:19;;;;;;;6.57;2.97;;;6.10;99.90;;;;;;5090971;28;20214;-82
2021/03/06 07:20:52;;;;;;;5.07;2.13;;;6.20;99.90;;;;;;5113184;28;20241;-82
2021/03/06 07:23:25;;;;;;;6.50;2.47;;;6.20;99.90;;;;;;5128288;28;20252;-83
2021/03/06 07:25:59;;;;;;;5.77;1.83;;;6.20;99.90;;;;;;5134067;28;20202;-83
2021/03/06 07:29:07;;;;;;;6.87;2.47;;;6.20;99.90;;;;;;5106206;28;20213;-83
2021/03/06 07:31:40;;;;;;;3.73;1.63;;;6.20;99.90;;;;;;5112806;28;20226;-82
2021/03/06 07:34:13;;;;;;;4.80;1.60;;;6.20;99.90;;;;;;5111702;28;20210;-84
2021/03/06 07:36:47;;;;;;;3.33;1.17;;;6.30;99.90;;;;;;5101698;28;20199;-83
2021/03/06 07:39:20;;;;;;;2.17;1.10;;;6.30;99.90;;;;;;5094712;28;20404;-82
2021/03/06 07:41:56;;;;;;;4.87;1.90;;;6.30;99.90;;;;;;5093975;28;20206;-83
2021/03/06 07:44:30;;;;;;;9.00;4.43;;;6.40;99.90;;;;;;5110548;28;20206;-82
2021/03/06 07:47:01;;;;;;;4.73;2.23;;;6.40;99.90;;;;;;5112152;28;20300;-84
2021/03/06 07:49:35;;;;;;;3.37;1.43;;;6.40;99.90;;;;;;5097248;28;20207;-83
2021/03/06 07:52:13;;;;;;;2.80;1.00;;;6.40;99.90;;;;;;5098752;28;20280;-83
2021/03/06 07:54:44;;;;;;;3.57;1.00;;;6.50;99.90;;;;;;5105057;28;20210;-82
2021/03/06 07:57:15;;;;;;;1.20;1.00;;;6.50;99.90;;;;;;5109684;28;20210;-81
2021/03/06 07:59:55;;;;;;;3.07;1.20;;;6.50;99.90;;;;;;5110207;28;20218;-82
2021/03/06 08:02:39;;;;;;;2.30;1.00;;;6.50;99.90;;;;;;5110448;28;20210;-82
2021/03/06 08:05:47;;;;;;;1.53;0.90;;;6.60;99.90;;;;;;5110018;28;20209;-82
2021/03/06 08:11:55;;;;;;;2.37;1.00;;;6.60;99.90;;;;;;5110093;28;20206;-82
2021/03/06 08:14:30;;;;;;;2.43;1.03;;;6.60;99.90;;;;;;5110135;28;20210;-81
2021/03/06 08:17:01;;;;;;;2.27;1.10;;;6.60;99.90;;;;;;5110536;28;20267;-82
2021/03/06 08:19:32;;;;;;;2.47;1.00;;;6.60;99.90;;;;;;5108299;28;20275;-81
2021/03/06 08:22:18;;;;;;;3.17;1.30;;;6.60;99.90;;;;;;5110177;28;20216;-84
2021/03/06 08:24:48;;;;;;;2.27;1.23;;;6.50;99.90;;;;;;5105653;28;20210;-83
2021/03/06 08:27:22;;;;;;;4.00;1.40;;;6.50;99.90;;;;;;5112854;28;20199;-84
2021/03/06 08:29:56;;;;;;;1.57;1.10;;;6.50;99.90;;;;;;5100629;28;20703;-84
2021/03/06 08:32:33;;;;;;;5.03;2.80;;;6.50;99.90;;;;;;5096134;28;20292;-83
2021/03/06 08:35:20;;;;;;;3.57;2.13;;;6.40;99.90;;;;;;5110862;28;20282;-83
2021/03/06 08:37:51;;;;;;;3.13;1.10;;;6.40;99.90;;;;;;5111527;28;20202;-82
2021/03/06 08:40:24;;;;;;;2.77;0.83;;;6.40;99.90;;;;;;5112037;28;20234;-82
2021/03/06 08:43:09;;;;;;;2.50;1.00;;;6.40;99.90;;;;;;5100856;28;20202;-82
2021/03/06 08:45:39;;;;;;;3.37;1.20;;;6.40;99.90;;;;;;5115761;28;20209;-82
2021/03/06 08:51:55;;;;;;;6.00;2.67;;;6.30;99.90;;;;;;5130112;28;20326;-82
2021/03/06 08:54:26;;;;;;;5.80;2.03;;;6.30;99.90;;;;;;5114920;28;20206;-82
2021/03/06 08:56:55;;;;;;;6.50;2.10;;;6.30;99.90;;;;;;5112377;28;20202;-83
2021/03/06 08:59:39;;;;;;;5.60;1.87;;;6.20;99.90;;;;;;5100131;28;20221;-83
2021/03/06 09:02:18;;;;;;;4.23;1.80;;;6.20;99.90;;;;;;5099148;28;20194;-82
2021/03/06 09:04:50;;;;;;;2.33;1.43;;;6.20;99.90;;;;;;5110855;28;20202;-81
2021/03/06 09:10:33;;;;;;;1.77;1.03;;;6.10;99.90;;;;;;5104797;28;20289;-83
2021/03/06 09:13:07;;;;;;;2.03;0.90;;;6.00;99.90;;;;;;5107936;28;20539;-83
2021/03/06 09:15:46;;;;;;;2.83;1.17;;;6.00;99.90;;;;;;5090240;28;20283;-82
2021/03/06 09:18:19;;;;;;;2.37;1.10;;;5.90;99.90;;;;;;5106631;28;20289;-82
2021/03/06 09:20:52;;;;;;;2.53;1.20;;;5.90;99.90;;;;;;5111248;28;20645;-82
2021/03/06 09:23:31;;;;;;;2.50;1.33;;;5.90;99.90;;;;;;5110921;28;20271;-82
2021/03/06 09:26:05;;;;;;;1.67;0.80;;;5.90;99.90;;;;;;5111631;28;20666;-83
2021/03/06 09:28:37;;;;;;;3.70;0.83;;;5.90;99.90;;;;;;5105047;28;20258;-83
2021/03/06 09:31:34;;;;;;;1.73;0.80;;;5.90;99.90;;;;;;5113681;28;20236;-85
2021/03/06 09:37:20;;;;;;;2.67;0.90;;;5.90;99.90;;;;;;5101717;28;20282;-84
2021/03/06 09:39:53;;;;;;;3.40;0.93;;;5.90;99.90;;;;;;5114059;28;20740;-84
2021/03/06 09:42:26;;;;;;;1.40;0.90;;;6.00;99.90;;;;;;5097255;28;20271;-84
2021/03/06 09:44:58;;;;;;;1.20;0.73;;;6.00;99.90;;;;;;5100996;28;20203;-84
2021/03/06 09:47:29;;;;;;;1.63;1.00;;;6.00;99.90;;;;;;5096811;28;20290;-84
2021/03/06 09:50:08;;;;;;;2.23;1.00;;;6.00;99.90;;;;;;5098148;28;20222;-84
2021/03/06 09:52:45;;;;;;;1.70;0.77;;;6.10;99.90;;;;;;5103842;28;20198;-84
2021/03/06 09:55:23;;;;;;;4.77;1.37;;;6.10;99.90;;;;;;5101208;28;20224;-84
2021/03/06 09:57:56;;;;;;;1.53;0.63;;;6.10;99.90;;;;;;5109920;28;20202;-83
2021/03/06 10:00:31;;;;;;;1.83;0.70;;;6.10;99.90;;;;;;5119258;28;20695;-84
2021/03/06 10:03:10;;;;;;;1.27;0.70;;;6.20;99.90;;;;;;5112539;28;20665;-85
2021/03/06 10:05:45;;;;;;;1.70;0.87;;;6.30;99.90;;;;;;5115370;28;20206;-84
2021/03/06 10:08:17;;;;;;;0.67;0.60;;;6.30;99.90;;;;;;5114675;28;20195;-83
2021/03/06 10:10:50;;;;;;;1.20;0.60;;;6.30;99.90;;;;;;5106134;28;20203;-83
2021/03/06 10:13:21;;;;;;;2.03;0.90;;;6.30;99.90;;;;;;5092011;28;20217;-85
2021/03/06 10:15:52;;;;;;;2.43;1.13;;;6.40;99.90;;;;;;5094074;28;20218;-83
2021/03/06 10:18:23;;;;;;;2.40;0.80;;;6.40;99.90;;;;;;5109728;28;20272;-84
2021/03/06 10:20:54;;;;;;;2.77;0.77;;;6.40;99.90;;;;;;5112470;28;20645;-84
2021/03/06 10:23:35;;;;;;;2.70;0.70;;;6.30;99.90;;;;;;5113041;28;20244;-84
2021/03/06 10:26:30;;;;;;;2.43;0.60;;;6.30;99.90;;;;;;5095648;28;20217;-84
2021/03/06 10:29:02;;;;;;;0.83;0.60;;;6.40;99.90;;;;;;5092914;28;20202;-86
2021/03/06 10:31:58;;;;;;;3.27;0.93;;;6.30;99.90;;;;;;5114290;28;20198;-84
2021/03/06 10:34:48;;;;;;;1.43;0.73;;;6.20;99.90;;;;;;5113304;28;20230;-84
2021/03/06 10:37:18;;;;;;;3.13;0.90;;;6.10;99.90;;;;;;5113016;28;20599;-84
2021/03/06 10:39:59;;;;;;;2.67;0.97;;;6.10;99.90;;;;;;5113665;28;20678;-84
2021/03/06 10:42:46;;;;;;;1.57;1.00;;;6.00;99.90;;;;;;5112439;28;20298;-84
2021/03/06 10:45:25;;;;;;;2.93;1.23;;;6.00;99.90;;;;;;5112495;28;20206;-85
2021/03/06 10:48:11;;;;;;;3.33;0.90;;;6.00;99.90;;;;;;5108027;28;20255;-84
2021/03/06 10:50:55;;;;;;;2.10;0.80;;;5.90;99.90;;;;;;5112284;28;20293;-83
2021/03/06 10:53:28;;;;;;;1.07;0.73;;;5.90;99.90;;;;;;5112258;28;20202;-82
2021/03/06 10:56:06;;;;;;;3.23;0.80;;;5.80;99.90;;;;;;5111081;28;20202;-82
2021/03/06 10:58:54;;;;;;;1.50;0.90;;;5.80;99.90;;;;;;5107221;28;20202;-83
2021/03/06 11:01:34;;;;;;;2.40;0.87;;;5.80;99.90;;;;;;5099063;28;20623;-84
2021/03/06 11:04:05;;;;;;;1.70;0.83;;;5.70;99.90;;;;;;5112117;28;20214;-83
2021/03/06 11:06:56;;;;;;;3.20;0.80;;;5.70;99.90;;;;;;5112395;28;20849;-84
2021/03/06 11:09:37;;;;;;;4.20;1.00;;;5.70;99.90;;;;;;5095025;28;20207;-82
2021/03/06 11:12:27;;;;;;;2.30;1.00;;;5.70;99.90;;;;;;5111286;28;20214;-85
2021/03/06 11:15:17;;;;;;;2.83;0.90;;;5.80;99.90;;;;;;5110513;28;20239;-84
2021/03/06 11:17:51;;;;;;;2.37;0.83;;;5.60;99.90;;;;;;5094644;28;20194;-83
2021/03/06 11:20:24;;;;;;;3.33;1.00;;;5.70;99.90;;;;;;5105503;28;20538;-83
2021/03/06 11:23:03;;;;;;;1.83;0.60;;;5.70;99.90;;;;;;5111695;28;20210;-84
2021/03/06 11:25:36;;;;;;;4.03;0.83;;;5.60;99.90;;;;;;5110960;28;20198;-83
2021/03/06 11:28:09;;;;;;;0.67;0.50;;;5.60;99.90;;;;;;5105113;28;20685;-83
2021/03/06 11:30:43;;;;;;;1.83;0.70;;;5.60;99.90;;;;;;5106988;28;20221;-84
2021/03/06 11:33:16;;;;;;;2.20;0.80;;;5.60;99.90;;;;;;5112496;28;20194;-84
2021/03/06 11:35:51;;;;;;;1.33;0.70;;;5.60;99.90;;;;;;5113032;28;20209;-83
2021/03/06 11:38:24;;;;;;;2.03;0.90;;;5.60;99.90;;;;;;5112243;28;20233;-85
2021/03/06 11:40:57;;;;;;;1.80;0.73;;;5.60;99.90;;;;;;5113011;28;20234;-85
2021/03/06 11:43:28;;;;;;;1.60;0.70;;;5.60;99.90;;;;;;5112663;28;20198;-85
2021/03/06 11:46:02;;;;;;;2.13;1.00;;;5.60;99.90;;;;;;5109443;28;20208;-84
2021/03/06 11:48:45;;;;;;;3.07;0.77;;;5.60;99.90;;;;;;5108971;28;20202;-86
2021/03/06 11:51:17;;;;;;;1.50;0.60;;;5.70;99.90;;;;;;5114026;28;20218;-84
2021/03/06 11:53:49;;;;;;;4.00;0.70;;;5.70;99.90;;;;;;5111461;28;20757;-84
2021/03/06 11:56:18;;;;;;;1.07;0.50;;;5.80;99.90;;;;;;5110807;28;20209;-84
2021/03/06 11:58:49;;;;;;;1.87;0.80;;;5.80;99.90;;;;;;5112352;28;20197;-85
2021/03/06 12:01:21;;;;;;;1.83;0.90;;;5.70;99.90;;;;;;5113918;28;20222;-85
2021/03/06 12:03:53;;;;;;;2.07;0.70;;;5.80;99.90;;;;;;5112456;28;20233;-85
2021/03/06 12:06:24;;;;;;;2.47;0.90;;;5.80;99.90;;;;;;5106955;28;20207;-84
2021/03/06 12:08:54;;;;;;;2.77;0.83;;;5.80;99.90;;;;;;5104247;28;20210;-83
2021/03/06 12:11:25;;;;;;;3.53;0.70;;;5.80;99.90;;;;;;5096243;28;20237;-84
2021/03/06 12:13:56;;;;;;;2.93;0.83;;;5.90;99.90;;;;;;5110936;28;20202;-84
2021/03/06 12:16:29;;;;;;;3.93;0.90;;;5.80;99.90;;;;;;5112932;28;20607;-85
2021/03/06 12:19:01;;;;;;;3.03;0.80;;;5.80;99.90;;;;;;5114378;28;20202;-82
2021/03/06 12:21:34;;;;;;;3.73;1.40;;;5.70;99.90;;;;;;5112580;28;20587;-83
2021/03/06 12:27:06;;;;;;;2.07;0.70;;;5.70;99.90;;;;;;5096260;28;20205;-84
2021/03/06 12:29:36;;;;;;;2.67;0.80;;;5.70;99.90;;;;;;5111024;28;20206;-85
2021/03/06 12:32:10;;;;;;;3.50;0.60;;;5.70;99.90;;;;;;5112036;28;20209;-83
2021/03/06 12:34:42;;;;;;;3.30;0.80;;;5.70;99.90;;;;;;5112005;28;20229;-83
2021/03/06 12:37:12;;;;;;;4.57;0.70;;;5.70;99.90;;;;;;5110856;28;20611;-83
2021/03/06 12:39:43;;;;;;;1.70;0.70;;;5.60;99.90;;;;;;5111500;28;20557;-83
2021/03/06 12:42:14;;;;;;;2.47;0.80;;;5.60;99.90;;;;;;5110832;28;20730;-82
2021/03/06 12:44:44;;;;;;;2.27;0.60;;;5.70;99.90;;;;;;5111317;28;20219;-82
2021/03/06 12:47:17;;;;;;;1.27;0.67;;;5.70;99.90;;;;;;5110915;28;20202;-82
2021/03/06 12:49:48;;;;;;;3.33;0.80;;;5.60;99.90;;;;;;5110621;28;20198;-82
2021/03/06 12:52:18;;;;;;;6.23;0.70;;;5.60;99.90;;;;;;5111498;28;20206;-83
2021/03/06 12:54:49;;;;;;;3.40;0.80;;;5.70;99.90;;;;;;5110229;28;20259;-81
2021/03/06 12:57:20;;;;;;;2.37;0.60;;;5.60;99.90;;;;;;5105815;28;20263;-82
2021/03/06 12:59:51;;;;;;;3.70;0.90;;;5.60;99.90;;;;;;5100296;28;20631;-81
2021/03/06 13:02:23;;;;;;;3.03;0.50;;;5.50;99.90;;;;;;5110804;28;20202;-83
2021/03/06 13:04:55;;;;;;;2.50;0.70;;;5.60;99.90;;;;;;5108425;28;20207;-84
2021/03/06 13:07:26;;;;;;;2.40;0.45;;;5.60;99.90;;;;;;4754556;27;9999637;-85
2021/03/06 13:09:56;;;;;;;2.40;0.77;;;5.60;99.90;;;;;;5114533;28;20241;-83
2021/03/06 13:12:27;;;;;;;1.03;0.50;;;5.70;99.90;;;;;;5113711;28;20243;-83
2021/03/06 13:14:58;;;;;;;1.40;0.63;;;5.70;99.90;;;;;;5111375;28;20235;-84
2021/03/06 13:17:30;;;;;;;1.90;0.50;;;5.70;99.90;;;;;;5112310;28;20237;-82
2021/03/06 13:20:01;;;;;;;1.67;0.80;;;5.70;99.90;;;;;;5105877;28;20209;-82
2021/03/06 13:22:31;;;;;;;3.80;0.53;;;5.60;99.90;;;;;;5114506;28;20608;-83
2021/03/06 13:25:01;;;;;;;1.77;0.60;;;5.60;99.90;;;;;;5106334;28;20206;-83
2021/03/06 13:27:32;;;;;;;1.73;0.70;;;5.60;99.90;;;;;;5099921;28;20209;-82
2021/03/06 13:30:02;;;;;;;1.67;0.60;;;5.70;99.90;;;;;;5110044;28;20209;-82
2021/03/06 13:32:33;;;;;;;2.57;0.60;;;5.70;99.90;;;;;;5115256;28;20650;-84
2021/03/06 13:35:04;;;;;;;3.43;0.70;;;5.80;99.90;;;;;;5114424;28;20214;-84
2021/03/06 13:37:33;;;;;;;0.80;0.50;;;5.80;99.90;;;;;;5110347;28;20203;-83
2021/03/06 13:40:05;;;;;;;3.93;0.60;;;5.80;99.90;;;;;;5094168;28;20203;-84
2021/03/06 13:42:35;;;;;;;4.33;0.70;;;5.70;99.90;;;;;;5110716;28;20559;-84
2021/03/06 13:45:07;;;;;;;3.43;0.70;;;5.80;99.90;;;;;;5096900;28;20605;-84
2021/03/06 13:47:38;;;;;;;1.20;0.30;;;5.80;99.90;;;;;;5114484;28;20259;-85
2021/03/06 13:50:10;;;;;;;3.77;0.80;;;5.80;99.90;;;;;;5114757;28;20215;-83
2021/03/06 13:52:41;;;;;;;0.73;0.50;;;5.70;99.90;;;;;;5104951;28;20199;-84
2021/03/06 13:55:13;;;;;;;2.33;0.60;;;5.80;99.90;;;;;;5097457;28;20251;-82